sensor_id;sensor_type;location;lat;lon;timestamp;temperature;humidity
74368;DHT22;64991;41.090;-8.118;2024-02-21T00:00:13;18.50;80.10
74368;DHT22;64991;41.090;-8.118;2024-02-21T00:05:19;18.30;80.20
74368;DHT22;64991;41.090;-8.118;2024-02-21T00:10:22;18.50;80.10
74368;DHT22;64991;41.090;-8.118;2024-02-21T00:15:26;18.50;80.30
74368;DHT22;64991;41.090;-8.118;2024-02-21T00:20:31;18.40;80.10
74368;DHT22;64991;41.090;-8.118;2024-02-21T00:25:35;18.40;80.20
74368;DHT22;64991;41.090;-8.118;2024-02-21T00:30:39;18.50;79.90
74368;DHT22;64991;41.090;-8.118;2024-02-21T00:35:44;18.50;80.00
74368;DHT22;64991;41.090;-8.118;2024-02-21T00:40:47;18.40;79.90
74368;DHT22;64991;41.090;-8.118;2024-02-21T00:45:51;18.50;80.10
74368;DHT22;64991;41.090;-8.118;2024-02-21T00:50:56;18.40;80.20
74368;DHT22;64991;41.090;-8.118;2024-02-21T00:56:00;18.50;80.00
74368;DHT22;64991;41.090;-8.118;2024-02-21T01:01:03;18.40;80.20
74368;DHT22;64991;41.090;-8.118;2024-02-21T01:06:08;18.50;79.80
74368;DHT22;64991;41.090;-8.118;2024-02-21T01:11:12;18.30;79.80
74368;DHT22;64991;41.090;-8.118;2024-02-21T01:16:16;18.40;79.80
74368;DHT22;64991;41.090;-8.118;2024-02-21T01:21:21;18.40;79.90
74368;DHT22;64991;41.090;-8.118;2024-02-21T01:26:25;18.30;79.90
74368;DHT22;64991;41.090;-8.118;2024-02-21T01:31:29;18.40;79.60
74368;DHT22;64991;41.090;-8.118;2024-02-21T01:36:34;18.40;79.80
74368;DHT22;64991;41.090;-8.118;2024-02-21T01:41:37;18.40;79.60
74368;DHT22;64991;41.090;-8.118;2024-02-21T01:46:41;18.40;79.80
74368;DHT22;64991;41.090;-8.118;2024-02-21T01:51:46;18.40;79.60
74368;DHT22;64991;41.090;-8.118;2024-02-21T01:56:50;18.30;79.70
74368;DHT22;64991;41.090;-8.118;2024-02-21T02:01:54;18.40;79.80
74368;DHT22;64991;41.090;-8.118;2024-02-21T02:07:00;18.40;79.60
74368;DHT22;64991;41.090;-8.118;2024-02-21T02:12:05;18.40;79.80
74368;DHT22;64991;41.090;-8.118;2024-02-21T02:17:09;18.30;79.60
74368;DHT22;64991;41.090;-8.118;2024-02-21T02:22:15;18.30;79.50
74368;DHT22;64991;41.090;-8.118;2024-02-21T02:27:24;18.40;79.50
74368;DHT22;64991;41.090;-8.118;2024-02-21T02:32:28;18.30;79.30
74368;DHT22;64991;41.090;-8.118;2024-02-21T02:37:31;18.30;79.30
74368;DHT22;64991;41.090;-8.118;2024-02-21T02:42:37;18.30;79.40
74368;DHT22;64991;41.090;-8.118;2024-02-21T02:47:40;18.20;79.40
74368;DHT22;64991;41.090;-8.118;2024-02-21T02:52:44;18.40;79.30
74368;DHT22;64991;41.090;-8.118;2024-02-21T02:57:49;18.30;79.40
74368;DHT22;64991;41.090;-8.118;2024-02-21T03:02:53;18.30;79.20
74368;DHT22;64991;41.090;-8.118;2024-02-21T03:07:57;18.30;79.20
74368;DHT22;64991;41.090;-8.118;2024-02-21T03:13:02;18.30;79.30
74368;DHT22;64991;41.090;-8.118;2024-02-21T03:18:06;18.20;79.40
74368;DHT22;64991;41.090;-8.118;2024-02-21T03:23:10;18.30;79.00
74368;DHT22;64991;41.090;-8.118;2024-02-21T03:28:15;18.30;79.20
74368;DHT22;64991;41.090;-8.118;2024-02-21T03:33:19;18.20;79.10
74368;DHT22;64991;41.090;-8.118;2024-02-21T03:38:25;18.20;79.10
74368;DHT22;64991;41.090;-8.118;2024-02-21T03:43:30;18.30;79.10
74368;DHT22;64991;41.090;-8.118;2024-02-21T03:48:34;18.20;79.00
74368;DHT22;64991;41.090;-8.118;2024-02-21T03:53:37;18.30;79.10
74368;DHT22;64991;41.090;-8.118;2024-02-21T03:58:42;18.20;79.10
74368;DHT22;64991;41.090;-8.118;2024-02-21T04:03:46;18.20;79.00
74368;DHT22;64991;41.090;-8.118;2024-02-21T04:08:50;18.20;78.90
74368;DHT22;64991;41.090;-8.118;2024-02-21T04:13:55;18.20;79.00
74368;DHT22;64991;41.090;-8.118;2024-02-21T04:18:58;18.20;79.00
74368;DHT22;64991;41.090;-8.118;2024-02-21T04:24:04;18.20;78.90
74368;DHT22;64991;41.090;-8.118;2024-02-21T04:29:09;18.20;78.90
74368;DHT22;64991;41.090;-8.118;2024-02-21T04:34:13;18.20;79.00
74368;DHT22;64991;41.090;-8.118;2024-02-21T04:39:17;18.10;79.30
74368;DHT22;64991;41.090;-8.118;2024-02-21T04:44:22;18.10;79.50
74368;DHT22;64991;41.090;-8.118;2024-02-21T04:49:25;18.10;79.40
74368;DHT22;64991;41.090;-8.118;2024-02-21T04:54:29;18.20;78.70
74368;DHT22;64991;41.090;-8.118;2024-02-21T04:59:34;18.10;79.30
74368;DHT22;64991;41.090;-8.118;2024-02-21T05:04:38;18.10;79.50
74368;DHT22;64991;41.090;-8.118;2024-02-21T05:09:43;18.20;78.70
74368;DHT22;64991;41.090;-8.118;2024-02-21T05:14:48;18.10;79.30
74368;DHT22;64991;41.090;-8.118;2024-02-21T05:19:52;18.20;78.90
74368;DHT22;64991;41.090;-8.118;2024-02-21T05:24:55;18.10;79.20
74368;DHT22;64991;41.090;-8.118;2024-02-21T05:30:00;18.10;79.10
74368;DHT22;64991;41.090;-8.118;2024-02-21T05:35:04;18.10;79.10
74368;DHT22;64991;41.090;-8.118;2024-02-21T05:40:08;18.10;79.20
74368;DHT22;64991;41.090;-8.118;2024-02-21T05:45:16;18.20;78.70
74368;DHT22;64991;41.090;-8.118;2024-02-21T05:50:20;18.10;79.30
74368;DHT22;64991;41.090;-8.118;2024-02-21T05:55:25;18.10;79.40
74368;DHT22;64991;41.090;-8.118;2024-02-21T06:00:31;18.00;79.10
74368;DHT22;64991;41.090;-8.118;2024-02-21T06:05:36;18.10;79.10
74368;DHT22;64991;41.090;-8.118;2024-02-21T06:10:41;18.00;79.10
74368;DHT22;64991;41.090;-8.118;2024-02-21T06:15:46;18.00;79.30
74368;DHT22;64991;41.090;-8.118;2024-02-21T06:20:51;18.00;79.30
74368;DHT22;64991;41.090;-8.118;2024-02-21T06:25:54;18.10;79.20
74368;DHT22;64991;41.090;-8.118;2024-02-21T06:31:00;18.00;79.40
74368;DHT22;64991;41.090;-8.118;2024-02-21T06:36:03;18.00;79.40
74368;DHT22;64991;41.090;-8.118;2024-02-21T06:41:14;18.00;79.10
74368;DHT22;64991;41.090;-8.118;2024-02-21T06:46:26;18.00;79.40
74368;DHT22;64991;41.090;-8.118;2024-02-21T06:51:31;18.00;79.50
74368;DHT22;64991;41.090;-8.118;2024-02-21T06:56:36;18.10;79.30
74368;DHT22;64991;41.090;-8.118;2024-02-21T07:01:41;18.00;79.30
74368;DHT22;64991;41.090;-8.118;2024-02-21T07:06:48;18.00;79.50
74368;DHT22;64991;41.090;-8.118;2024-02-21T07:11:52;18.00;79.40
74368;DHT22;64991;41.090;-8.118;2024-02-21T07:16:57;18.00;79.20
74368;DHT22;64991;41.090;-8.118;2024-02-21T07:22:01;17.90;79.40
74368;DHT22;64991;41.090;-8.118;2024-02-21T07:27:04;18.00;79.20
74368;DHT22;64991;41.090;-8.118;2024-02-21T07:32:09;17.90;79.60
74368;DHT22;64991;41.090;-8.118;2024-02-21T07:37:13;18.00;79.40
74368;DHT22;64991;41.090;-8.118;2024-02-21T07:42:16;17.90;79.40
74368;DHT22;64991;41.090;-8.118;2024-02-21T07:47:21;17.90;79.40
74368;DHT22;64991;41.090;-8.118;2024-02-21T07:52:26;18.00;79.40
74368;DHT22;64991;41.090;-8.118;2024-02-21T07:57:30;18.00;79.40
74368;DHT22;64991;41.090;-8.118;2024-02-21T08:02:35;17.90;79.20
74368;DHT22;64991;41.090;-8.118;2024-02-21T08:07:39;18.00;79.60
74368;DHT22;64991;41.090;-8.118;2024-02-21T08:12:43;18.00;79.40
74368;DHT22;64991;41.090;-8.118;2024-02-21T08:17:48;17.90;79.40
74368;DHT22;64991;41.090;-8.118;2024-02-21T08:22:51;17.90;79.50
74368;DHT22;64991;41.090;-8.118;2024-02-21T08:27:57;17.90;79.40
74368;DHT22;64991;41.090;-8.118;2024-02-21T08:33:03;18.00;79.30
74368;DHT22;64991;41.090;-8.118;2024-02-21T08:38:07;17.90;79.50
74368;DHT22;64991;41.090;-8.118;2024-02-21T08:43:10;17.90;79.40
74368;DHT22;64991;41.090;-8.118;2024-02-21T08:48:16;17.80;79.20
74368;DHT22;64991;41.090;-8.118;2024-02-21T08:53:19;18.00;79.20
74368;DHT22;64991;41.090;-8.118;2024-02-21T08:58:23;18.00;79.20
74368;DHT22;64991;41.090;-8.118;2024-02-21T09:03:30;17.90;79.30
74368;DHT22;64991;41.090;-8.118;2024-02-21T09:08:34;17.80;79.30
74368;DHT22;64991;41.090;-8.118;2024-02-21T09:13:38;17.90;79.40
74368;DHT22;64991;41.090;-8.118;2024-02-21T09:18:43;17.90;79.50
74368;DHT22;64991;41.090;-8.118;2024-02-21T09:23:46;17.90;79.40
74368;DHT22;64991;41.090;-8.118;2024-02-21T09:28:50;17.90;79.70
74368;DHT22;64991;41.090;-8.118;2024-02-21T09:33:55;17.90;79.60
74368;DHT22;64991;41.090;-8.118;2024-02-21T09:38:59;17.80;79.40
74368;DHT22;64991;41.090;-8.118;2024-02-21T09:44:02;17.80;79.60
74368;DHT22;64991;41.090;-8.118;2024-02-21T09:49:10;17.90;79.70
74368;DHT22;64991;41.090;-8.118;2024-02-21T09:54:20;17.80;79.80
74368;DHT22;64991;41.090;-8.118;2024-02-21T09:59:24;17.90;79.80
74368;DHT22;64991;41.090;-8.118;2024-02-21T10:04:29;17.90;79.70
74368;DHT22;64991;41.090;-8.118;2024-02-21T10:09:34;17.90;79.80
74368;DHT22;64991;41.090;-8.118;2024-02-21T10:14:38;17.90;79.80
74368;DHT22;64991;41.090;-8.118;2024-02-21T10:19:43;17.90;79.90
74368;DHT22;64991;41.090;-8.118;2024-02-21T10:24:47;17.90;80.00
74368;DHT22;64991;41.090;-8.118;2024-02-21T10:29:50;17.90;80.10
74368;DHT22;64991;41.090;-8.118;2024-02-21T10:35:01;17.90;80.10
74368;DHT22;64991;41.090;-8.118;2024-02-21T10:40:07;17.90;80.10
74368;DHT22;64991;41.090;-8.118;2024-02-21T10:45:12;17.90;80.10
74368;DHT22;64991;41.090;-8.118;2024-02-21T10:50:19;17.80;80.20
74368;DHT22;64991;41.090;-8.118;2024-02-21T10:55:25;17.90;80.20
74368;DHT22;64991;41.090;-8.118;2024-02-21T11:00:32;17.80;80.30
74368;DHT22;64991;41.090;-8.118;2024-02-21T11:05:38;17.80;80.30
74368;DHT22;64991;41.090;-8.118;2024-02-21T11:10:45;17.80;80.50
74368;DHT22;64991;41.090;-8.118;2024-02-21T11:15:49;17.80;80.50
74368;DHT22;64991;41.090;-8.118;2024-02-21T11:20:54;17.80;80.30
74368;DHT22;64991;41.090;-8.118;2024-02-21T11:26:05;17.80;80.40
74368;DHT22;64991;41.090;-8.118;2024-02-21T11:31:10;17.80;80.60
74368;DHT22;64991;41.090;-8.118;2024-02-21T11:36:24;17.80;80.20
74368;DHT22;64991;41.090;-8.118;2024-02-21T11:41:28;17.90;80.60
74368;DHT22;64991;41.090;-8.118;2024-02-21T11:46:32;17.70;80.90
74368;DHT22;64991;41.090;-8.118;2024-02-21T11:51:37;17.80;80.70
74368;DHT22;64991;41.090;-8.118;2024-02-21T11:56:40;17.80;80.70
74368;DHT22;64991;41.090;-8.118;2024-02-21T12:01:44;17.80;80.90
74368;DHT22;64991;41.090;-8.118;2024-02-21T12:06:49;17.80;80.80
74368;DHT22;64991;41.090;-8.118;2024-02-21T12:11:59;17.80;80.80
74368;DHT22;64991;41.090;-8.118;2024-02-21T12:17:04;17.80;81.30
74368;DHT22;64991;41.090;-8.118;2024-02-21T12:22:10;17.80;80.90
74368;DHT22;64991;41.090;-8.118;2024-02-21T12:27:21;17.90;81.10
74368;DHT22;64991;41.090;-8.118;2024-02-21T12:32:25;17.90;81.10
74368;DHT22;64991;41.090;-8.118;2024-02-21T12:37:30;17.90;81.40
74368;DHT22;64991;41.090;-8.118;2024-02-21T12:42:37;17.90;81.30
74368;DHT22;64991;41.090;-8.118;2024-02-21T12:47:41;17.80;81.40
74368;DHT22;64991;41.090;-8.118;2024-02-21T12:52:46;17.80;81.10
74368;DHT22;64991;41.090;-8.118;2024-02-21T12:57:49;17.80;81.30
74368;DHT22;64991;41.090;-8.118;2024-02-21T13:02:53;17.90;81.60
74368;DHT22;64991;41.090;-8.118;2024-02-21T13:07:58;17.90;81.70
74368;DHT22;64991;41.090;-8.118;2024-02-21T13:13:02;17.80;81.70
74368;DHT22;64991;41.090;-8.118;2024-02-21T13:18:06;17.80;81.70
74368;DHT22;64991;41.090;-8.118;2024-02-21T13:23:11;17.80;81.60
74368;DHT22;64991;41.090;-8.118;2024-02-21T13:28:15;17.80;81.80
74368;DHT22;64991;41.090;-8.118;2024-02-21T13:33:18;17.90;81.80
74368;DHT22;64991;41.090;-8.118;2024-02-21T13:38:24;17.80;81.90
74368;DHT22;64991;41.090;-8.118;2024-02-21T13:43:28;17.90;82.00
74368;DHT22;64991;41.090;-8.118;2024-02-21T13:48:32;17.90;81.90
74368;DHT22;64991;41.090;-8.118;2024-02-21T13:53:37;17.90;81.70
74368;DHT22;64991;41.090;-8.118;2024-02-21T13:58:41;17.90;81.90
74368;DHT22;64991;41.090;-8.118;2024-02-21T14:03:45;17.80;82.10
74368;DHT22;64991;41.090;-8.118;2024-02-21T14:08:50;17.90;82.00
74368;DHT22;64991;41.090;-8.118;2024-02-21T14:13:53;17.80;81.80
74368;DHT22;64991;41.090;-8.118;2024-02-21T14:18:59;17.80;82.00
74368;DHT22;64991;41.090;-8.118;2024-02-21T14:24:05;17.80;82.10
74368;DHT22;64991;41.090;-8.118;2024-02-21T14:29:10;17.80;82.10
74368;DHT22;64991;41.090;-8.118;2024-02-21T14:34:14;17.90;82.20
74368;DHT22;64991;41.090;-8.118;2024-02-21T14:39:19;17.80;82.10
74368;DHT22;64991;41.090;-8.118;2024-02-21T14:44:23;17.80;82.10
74368;DHT22;64991;41.090;-8.118;2024-02-21T14:49:27;17.90;82.60
74368;DHT22;64991;41.090;-8.118;2024-02-21T14:54:32;17.80;82.20
74368;DHT22;64991;41.090;-8.118;2024-02-21T14:59:36;17.80;82.20
74368;DHT22;64991;41.090;-8.118;2024-02-21T15:04:40;17.70;82.50
74368;DHT22;64991;41.090;-8.118;2024-02-21T15:09:45;17.70;82.50
74368;DHT22;64991;41.090;-8.118;2024-02-21T15:14:49;17.70;82.40
74368;DHT22;64991;41.090;-8.118;2024-02-21T15:19:53;17.70;82.60
74368;DHT22;64991;41.090;-8.118;2024-02-21T15:24:59;17.70;82.50
74368;DHT22;64991;41.090;-8.118;2024-02-21T15:30:03;17.70;82.80
74368;DHT22;64991;41.090;-8.118;2024-02-21T15:35:07;17.70;82.60
74368;DHT22;64991;41.090;-8.118;2024-02-21T15:40:14;17.70;82.70
74368;DHT22;64991;41.090;-8.118;2024-02-21T15:45:17;17.70;82.70
74368;DHT22;64991;41.090;-8.118;2024-02-21T15:50:21;17.80;83.00
74368;DHT22;64991;41.090;-8.118;2024-02-21T15:55:26;17.80;82.70
74368;DHT22;64991;41.090;-8.118;2024-02-21T16:00:30;17.80;82.70
74368;DHT22;64991;41.090;-8.118;2024-02-21T16:05:35;17.80;82.70
74368;DHT22;64991;41.090;-8.118;2024-02-21T16:10:40;17.80;82.60
74368;DHT22;64991;41.090;-8.118;2024-02-21T16:15:44;17.80;82.80
74368;DHT22;64991;41.090;-8.118;2024-02-21T16:20:50;17.80;82.90
74368;DHT22;64991;41.090;-8.118;2024-02-21T16:25:55;17.80;82.90
74368;DHT22;64991;41.090;-8.118;2024-02-21T16:30:59;17.70;83.10
74368;DHT22;64991;41.090;-8.118;2024-02-21T16:36:03;17.70;82.80
74368;DHT22;64991;41.090;-8.118;2024-02-21T16:41:10;17.80;82.70
74368;DHT22;64991;41.090;-8.118;2024-02-21T16:46:14;17.80;82.60
74368;DHT22;64991;41.090;-8.118;2024-02-21T16:51:19;17.80;82.90
74368;DHT22;64991;41.090;-8.118;2024-02-21T16:56:24;17.70;82.80
74368;DHT22;64991;41.090;-8.118;2024-02-21T17:01:28;17.80;82.70
74368;DHT22;64991;41.090;-8.118;2024-02-21T17:06:37;17.80;82.70
74368;DHT22;64991;41.090;-8.118;2024-02-21T17:11:42;17.80;82.80
74368;DHT22;64991;41.090;-8.118;2024-02-21T17:16:46;17.80;82.80
74368;DHT22;64991;41.090;-8.118;2024-02-21T17:21:50;17.80;82.80
74368;DHT22;64991;41.090;-8.118;2024-02-21T17:26:55;17.80;82.80
74368;DHT22;64991;41.090;-8.118;2024-02-21T17:31:59;17.70;82.60
74368;DHT22;64991;41.090;-8.118;2024-02-21T17:37:03;17.80;82.90
74368;DHT22;64991;41.090;-8.118;2024-02-21T17:42:08;17.80;82.90
74368;DHT22;64991;41.090;-8.118;2024-02-21T17:47:12;17.80;83.00
74368;DHT22;64991;41.090;-8.118;2024-02-21T17:52:16;17.80;82.70
74368;DHT22;64991;41.090;-8.118;2024-02-21T17:57:21;17.80;83.00
74368;DHT22;64991;41.090;-8.118;2024-02-21T18:02:24;17.80;82.90
74368;DHT22;64991;41.090;-8.118;2024-02-21T18:07:28;17.80;82.80
74368;DHT22;64991;41.090;-8.118;2024-02-21T18:12:34;17.80;82.90
74368;DHT22;64991;41.090;-8.118;2024-02-21T18:17:38;17.80;83.00
74368;DHT22;64991;41.090;-8.118;2024-02-21T18:22:43;17.80;83.10
74368;DHT22;64991;41.090;-8.118;2024-02-21T18:27:48;17.80;82.80
74368;DHT22;64991;41.090;-8.118;2024-02-21T18:32:52;17.80;83.00
74368;DHT22;64991;41.090;-8.118;2024-02-21T18:37:56;17.80;83.00
74368;DHT22;64991;41.090;-8.118;2024-02-21T18:43:01;17.80;83.30
74368;DHT22;64991;41.090;-8.118;2024-02-21T18:48:05;17.70;83.30
74368;DHT22;64991;41.090;-8.118;2024-02-21T18:53:11;17.70;83.00
74368;DHT22;64991;41.090;-8.118;2024-02-21T18:58:16;17.70;83.10
74368;DHT22;64991;41.090;-8.118;2024-02-21T19:03:20;17.80;83.10
74368;DHT22;64991;41.090;-8.118;2024-02-21T19:08:23;17.80;83.00
74368;DHT22;64991;41.090;-8.118;2024-02-21T19:13:28;17.70;83.30
74368;DHT22;64991;41.090;-8.118;2024-02-21T19:18:32;17.80;83.00
74368;DHT22;64991;41.090;-8.118;2024-02-21T19:23:36;17.70;83.00
74368;DHT22;64991;41.090;-8.118;2024-02-21T19:28:41;17.80;83.10
74368;DHT22;64991;41.090;-8.118;2024-02-21T19:33:47;17.80;83.30
74368;DHT22;64991;41.090;-8.118;2024-02-21T19:38:51;17.70;83.00
74368;DHT22;64991;41.090;-8.118;2024-02-21T19:43:56;17.70;82.90
74368;DHT22;64991;41.090;-8.118;2024-02-21T19:48:59;17.80;83.20
74368;DHT22;64991;41.090;-8.118;2024-02-21T19:54:04;17.70;82.90
74368;DHT22;64991;41.090;-8.118;2024-02-21T19:59:26;17.70;83.20
74368;DHT22;64991;41.090;-8.118;2024-02-21T20:04:30;17.70;83.30
74368;DHT22;64991;41.090;-8.118;2024-02-21T20:09:33;17.70;83.10
74368;DHT22;64991;41.090;-8.118;2024-02-21T20:14:40;17.70;83.00
74368;DHT22;64991;41.090;-8.118;2024-02-21T20:19:43;17.80;82.90
74368;DHT22;64991;41.090;-8.118;2024-02-21T20:24:47;17.70;83.30
74368;DHT22;64991;41.090;-8.118;2024-02-21T20:29:52;17.80;83.40
74368;DHT22;64991;41.090;-8.118;2024-02-21T20:34:56;17.70;83.40
74368;DHT22;64991;41.090;-8.118;2024-02-21T20:40:01;17.70;83.10
74368;DHT22;64991;41.090;-8.118;2024-02-21T20:45:10;17.80;83.10
74368;DHT22;64991;41.090;-8.118;2024-02-21T20:50:13;17.70;83.10
74368;DHT22;64991;41.090;-8.118;2024-02-21T20:55:17;17.70;83.30
74368;DHT22;64991;41.090;-8.118;2024-02-21T21:00:28;17.70;83.00
74368;DHT22;64991;41.090;-8.118;2024-02-21T21:05:31;17.60;83.10
74368;DHT22;64991;41.090;-8.118;2024-02-21T21:10:35;17.70;83.30
74368;DHT22;64991;41.090;-8.118;2024-02-21T21:15:40;17.70;83.30
74368;DHT22;64991;41.090;-8.118;2024-02-21T21:20:47;17.70;83.00
74368;DHT22;64991;41.090;-8.118;2024-02-21T21:25:51;17.70;83.10
74368;DHT22;64991;41.090;-8.118;2024-02-21T21:30:56;17.70;83.30
74368;DHT22;64991;41.090;-8.118;2024-02-21T21:36:00;17.70;83.20
74368;DHT22;64991;41.090;-8.118;2024-02-21T21:41:05;17.70;83.30
74368;DHT22;64991;41.090;-8.118;2024-02-21T21:46:14;17.70;83.00
74368;DHT22;64991;41.090;-8.118;2024-02-21T21:51:17;17.80;83.20
74368;DHT22;64991;41.090;-8.118;2024-02-21T21:56:22;17.60;83.30
74368;DHT22;64991;41.090;-8.118;2024-02-21T22:01:27;17.70;83.20
74368;DHT22;64991;41.090;-8.118;2024-02-21T22:06:31;17.70;83.20
74368;DHT22;64991;41.090;-8.118;2024-02-21T22:11:35;17.70;83.30
74368;DHT22;64991;41.090;-8.118;2024-02-21T22:16:40;17.60;83.20
74368;DHT22;64991;41.090;-8.118;2024-02-21T22:21:45;17.70;83.00
74368;DHT22;64991;41.090;-8.118;2024-02-21T22:26:49;17.70;83.20
74368;DHT22;64991;41.090;-8.118;2024-02-21T22:31:54;17.60;83.20
74368;DHT22;64991;41.090;-8.118;2024-02-21T22:36:58;17.60;83.20
74368;DHT22;64991;41.090;-8.118;2024-02-21T22:42:01;17.70;83.40
74368;DHT22;64991;41.090;-8.118;2024-02-21T22:47:07;17.60;83.30
74368;DHT22;64991;41.090;-8.118;2024-02-21T22:52:10;17.60;83.20
74368;DHT22;64991;41.090;-8.118;2024-02-21T22:57:14;17.60;83.30
74368;DHT22;64991;41.090;-8.118;2024-02-21T23:02:19;17.60;83.30
74368;DHT22;64991;41.090;-8.118;2024-02-21T23:07:22;17.60;83.30
74368;DHT22;64991;41.090;-8.118;2024-02-21T23:12:26;17.70;83.30
74368;DHT22;64991;41.090;-8.118;2024-02-21T23:17:31;17.70;83.40
74368;DHT22;64991;41.090;-8.118;2024-02-21T23:22:35;17.60;83.20
74368;DHT22;64991;41.090;-8.118;2024-02-21T23:27:39;17.60;83.20
74368;DHT22;64991;41.090;-8.118;2024-02-21T23:32:44;17.70;83.30
74368;DHT22;64991;41.090;-8.118;2024-02-21T23:37:48;17.70;83.30
74368;DHT22;64991;41.090;-8.118;2024-02-21T23:42:51;17.70;83.20
74368;DHT22;64991;41.090;-8.118;2024-02-21T23:47:56;17.60;83.40
74368;DHT22;64991;41.090;-8.118;2024-02-21T23:53:00;17.60;83.20
74368;DHT22;64991;41.090;-8.118;2024-02-21T23:58:04;17.60;83.40
